CDT,Max TemperatureF,Mean TemperatureF,Min TemperatureF,Max Dew PointF,MeanDew PointF,Min DewpointF,Max Humidity, Mean Humidity, Min Humidity, Max Sea Level PressureIn, Mean Sea Level PressureIn, Min Sea Level PressureIn, Max VisibilityMiles, Mean VisibilityMiles, Min VisibilityMiles, Max Wind SpeedMPH, Mean Wind SpeedMPH, Max Gust SpeedMPH,PrecipitationIn, CloudCover, Events, WindDirDegrees
2012-8-1,82,72,62,70,63,57,94,78,45,29.97,29.90,29.79,10,9,2,14,6,16,0.00,,,202
2012-8-2,82,76,69,68,66,64,83,74,54,29.89,29.82,29.73,10,10,10,17,8,28,0.12,,Thunderstorm,251
2012-8-3,78,72,66,70,66,61,94,83,69,29.98,29.95,29.89,10,10,10,12,8,16,0.07,,,79
2012-8-4,87,78,69,73,68,64,94,82,48,29.95,29.86,29.79,10,9,5,13,7,16,0.12,,Thunderstorm,201
2012-8-5,73,65,57,66,53,45,88,61,36,30.12,30.00,29.82,10,10,10,18,10,26,0.00,,,286
2012-8-6,78,68,57,57,54,50,88,64,42,30.13,30.06,29.94,10,10,2,15,7,22,0.00,,,234
2012-8-7,80,71,62,63,58,54,82,66,47,30.03,29.94,29.91,10,10,8,10,7,,0.00,0,,312
2012-8-8,73,68,62,59,55,52,78,65,53,30.07,30.05,30.02,10,10,10,14,6,,0.00,4,,37
2012-8-9,66,63,60,59,57,54,94,80,68,30.02,29.99,29.97,10,10,8,13,6,,0.40,7,,33
2012-8-10,69,64,60,59,52,46,88,65,46,30.00,29.99,29.95,10,10,10,26,15,32,0.25,1,,11
2012-8-11,75,66,55,55,52,50,88,63,41,30.00,29.97,29.95,10,10,10,22,14,30,0.00,0,,358
2012-8-12,73,62,51,63,56,48,94,76,56,30.02,29.98,29.96,10,10,10,10,2,,0.00,1,,167
2012-8-13,77,68,59,61,58,55,88,75,50,29.96,29.94,29.91,10,10,9,7,4,,0.00,1,,245
2012-8-14,77,66,55,61,55,48,94,70,36,29.94,29.91,29.89,10,9,0,10,3,17,0.00,1,,292
2012-8-15,75,66,57,64,61,54,94,78,61,29.94,29.90,29.84,10,10,6,14,4,18,0.00,3,,141
2012-8-16,73,66,62,64,59,52,94,75,53,29.86,29.76,29.67,10,10,5,17,10,25,0.51,5,Thunderstorm,262
2012-8-17,71,61,53,54,47,43,82,60,38,30.00,29.95,29.87,10,10,10,16,11,22,0.00,0,,313
2012-8-18,73,60,48,55,49,46,93,64,41,30.02,29.98,29.92,10,10,10,13,3,21,0.00,2,,257
2012-8-19,69,61,53,55,51,46,94,69,46,29.99,29.97,29.95,10,10,3,9,2,,0.00,5,,80
2012-8-20,73,62,50,55,49,43,94,66,38,30.00,29.98,29.95,10,10,10,13,3,,0.00,2,,284
2012-8-21,78,65,53,57,53,52,94,67,41,30.06,30.03,29.99,10,10,1,12,4,,0.00,2,,248
2012-8-22,80,68,57,61,54,50,78,59,36,30.07,30.04,30.01,10,10,10,17,9,21,0.00,0,,218
2012-8-23,84,73,62,66,60,55,83,69,42,30.05,30.01,29.97,10,10,10,14,9,20,0.00,2,,182
2012-8-24,78,74,69,64,61,57,78,65,53,30.01,29.97,29.95,10,10,10,18,10,24,0.00,2,Thunderstorm,185
2012-8-25,86,76,66,68,63,59,83,63,45,30.03,30.01,29.97,10,10,9,15,8,21,0.00,0,,173
2012-8-26,73,70,66,66,64,61,94,81,65,30.05,30.00,29.95,10,8,3,16,7,23,0.22,5,,198
2012-8-27,78,70,62,64,58,54,94,62,42,30.10,30.04,29.99,10,9,0,12,6,,0.00,0,,315
2012-8-28,73,65,57,61,58,55,94,74,53,30.18,30.13,30.09,10,10,4,12,4,,0.00,2,,105
2012-8-29,80,70,60,66,62,52,94,64,51,30.11,30.04,29.97,10,10,10,17,8,22,0.00,1,,189
2012-8-30,89,78,68,66,62,52,78,58,40,29.97,29.88,29.81,10,10,10,24,14,31,0.00,0,,194
2012-8-31,82,76,64,66,60,50,78,59,32,30.12,29.95,29.86,10,10,10,17,13,25,0.00,0,,296